Latest Coastal Weather Observations for Lockhart River

IDQ60701

Issued at 3:35 pm EST Thursday 17 April 2014 (issued every 10 minutes, with the page automatically refreshed every 10 minutes)

About coastal observations | Map of coastal stations | Coastal observations for QLD | Marine services | Other Formats
Station Details ID: 028008 Name: LOCKHART RIVER AIRPORT Lat: -12.79 Lon: 143.30 Height: 18.5 m
Data from the previous 72 hours. | See also: Recent months at Lockhart River
Date/Time
EST
Temp

°C
Wind Pressure Rain
since 9am
mm
Weather Cloud Vis
km
Sea
Height
m
Swell
Dir
 
Speed
knots
Gust
knots
hPa Trend Height
m
Period
s
Dir
17/03:30pm 27.5 SE 10 14 1010.1 - 1.6 - - - - - - -
17/03:00pm 27.0 SE 11 17 1010.2 - 1.6 Fine Mostly cloudy 15 - - - -
17/02:30pm 28.8 E 10 16 1010.2 - 0.0 - - - - - - -
17/02:00pm 28.7 SE 12 15 1010.6 - 0.0 - - - - - - -
17/01:30pm 28.8 ESE 11 17 1010.9 - 0.0 - - - - - - -
17/01:00pm 29.1 ESE 13 19 1011.0 - 0.0 - - - - - - -
17/12:30pm 28.9 E 11 16 1011.4 - 0.0 - - - - - - -
17/12:00pm 29.2 ESE 11 17 1011.6 - 0.0 - - - - - - -
17/11:30am 28.9 ESE 12 19 1012.3 - 0.0 - - - - - - -
17/11:00am 28.5 ESE 13 19 1012.6 - 0.0 - - - - - - -
17/10:30am 28.8 ESE 12 18 1012.7 - 0.0 - - - - - - -
17/10:00am 28.3 ESE 12 19 1012.8 - 0.0 - - - - - - -
17/09:30am 28.1 ESE 10 13 1012.9 - 0.0 - - - - - - -
17/09:00am 27.6 ESE 10 14 1012.6 - 0.4 Fine Mostly cloudy 15 - - - -
17/08:30am 27.3 ESE 11 15 1012.5 - 0.4 - - - - - - -
17/08:00am 27.3 ESE 9 15 1012.4 - 0.4 - - - - - - -
17/07:30am 27.0 ESE 8 10 1012.2 - 0.4 - - - - - - -
17/07:00am 26.6 ESE 7 9 1011.9 - 0.4 - - - - - - -
17/06:30am 26.5 ESE 7 10 1011.5 - 0.4 - - - - - - -
17/06:00am 26.5 SE 9 13 1011.0 - 0.2 - - - - - - -
17/05:30am 26.7 SE 8 10 1010.8 - 0.2 - - - - - - -
17/05:00am 26.8 ESE 9 14 1010.5 - 0.2 - - - - - - -
17/04:30am 26.8 ESE 10 14 1010.4 - 0.2 - - - - - - -
17/04:00am 26.9 ESE 10 13 1010.3 - 0.2 - - - - - - -
17/03:30am 26.8 ESE 10 15 1010.1 - 0.2 - - - - - - -
17/03:00am 26.7 ESE 9 12 1010.1 - 0.2 - - - - - - -
17/02:30am 26.8 ESE 10 14 1010.2 - 0.2 - - - - - - -
17/02:00am 26.6 SE 8 11 1010.5 - 0.2 - - - - - - -
17/01:30am 26.5 ESE 8 13 1010.8 - 0.2 - - - - - - -
17/01:00am 26.6 ESE 8 11 1011.0 - 0.2 - - - - - - -
17/12:30am 26.7 ESE 10 13 1011.2 - 0.2 - - - - - - -
17/12:00am 26.7 SE 11 16 1011.6 - 0.2 - - - - - - -
 
Date/Time
EST
Temp

°C
Wind Pressure Rain
since 9am
mm
Weather Cloud Vis
km
Sea
Height
m
Swell
Dir
 
Speed
knots
Gust
knots
hPa Trend Height
m
Period
s
Dir
16/11:30pm 26.6 ESE 9 14 1011.8 - 0.2 - - - - - - -
16/11:00pm 26.5 ESE 12 18 1011.8 - 0.2 - - - - - - -
16/10:30pm 26.4 SE 10 15 1012.0 - 0.2 - - - - - - -
16/10:00pm 26.2 SE 9 13 1011.8 - 0.2 - - - - - - -
16/09:30pm 25.9 SE 12 17 1011.8 - 0.2 - - - - - - -
16/09:00pm 25.9 SE 11 14 1011.7 - 0.2 - - - - - - -
16/08:30pm 26.0 SE 15 19 1011.6 - 0.2 - - - - - - -
16/08:00pm 26.3 SE 15 20 1011.2 - 0.2 - - - - - - -
16/07:30pm 26.1 SE 12 16 1010.7 - 0.2 - - - - - - -
16/07:00pm 26.9 ESE 12 19 1010.2 - 0.0 - - - - - - -
16/06:30pm 27.3 E 7 13 1009.7 - 0.0 - - - - - - -
16/06:00pm 27.3 E 10 15 1009.2 - 0.0 - - - - - - -
16/05:30pm 26.9 E 7 12 1009.1 - 0.0 - - - - - - -
16/05:00pm 27.9 E 10 17 1008.9 - 0.0 - - - - - - -
16/04:30pm 28.0 ESE 8 13 1008.8 - 0.0 - - - - - - -
16/04:00pm 28.4 ESE 11 18 1008.5 - 0.0 - - - - - - -
16/03:30pm 28.7 ESE 13 19 1008.3 - 0.0 - - - - - - -
16/03:00pm 29.0 E 12 19 1008.5 - 0.0 Fine Partly cloudy 20 - - - -
16/02:30pm 29.0 E 12 17 1008.9 - 0.0 - - - - - - -
16/02:00pm 29.3 E 11 18 1009.4 - 0.0 - - - - - - -
16/01:30pm 29.5 E 10 15 1009.6 - 0.0 - - - - - - -
16/01:00pm 29.4 E 9 14 1010.0 - 0.0 - - - - - - -
16/12:30pm 28.9 E 11 15 1010.4 - 0.0 - - - - - - -
16/12:00pm 29.1 E 11 17 1010.9 - 0.0 - - - - - - -
16/11:30am 29.1 E 11 17 1011.4 - 0.0 - - - - - - -
16/11:00am 29.1 E 11 17 1011.7 - 0.0 - - - - - - -
16/10:30am 29.3 E 11 16 1012.0 - 0.0 - - - - - - -
16/10:00am 28.8 ESE 12 17 1012.0 - 0.0 - - - - - - -
16/09:30am 28.1 E 9 14 1012.0 - 0.0 - - - - - - -
16/09:00am 27.2 E 8 14 1011.7 - 4.4 Fine Partly cloudy 15 - - - -
16/08:30am 25.4 NNW 1 3 1011.7 - 4.4 - - - - - - -
16/08:00am 24.9 CALM 0 0 1011.3 - 4.4 - - - - - - -
16/07:30am 24.3 CALM 0 0 1011.1 - 4.4 - - - - - - -
16/07:00am 24.4 CALM 0 0 1011.0 - 4.4 - - - - - - -
16/06:30am 24.3 CALM 0 0 1010.8 - 4.4 - - - - - - -
16/06:00am 24.4 ESE 5 7 1010.4 - 4.4 - - - - - - -
16/05:30am 24.7 CALM 0 0 1010.6 - 4.4 - - - - - - -
16/05:00am 24.5 CALM 0 0 1010.4 - 4.0 - - - - - - -
16/04:30am 24.4 CALM 0 0 1010.3 - 4.0 - - - - - - -
16/04:00am 24.8 CALM 0 0 1009.9 - 4.0 - - - - - - -
16/03:30am 24.8 CALM 0 0 1010.0 - 4.0 - - - - - - -
16/03:00am 24.8 CALM 0 0 1009.9 - 4.0 - - - - - - -
16/02:30am 24.9 CALM 0 0 1010.2 - 4.0 - - - - - - -
16/02:00am 25.0 CALM 0 0 1010.4 - 4.0 - - - - - - -
16/01:30am 24.9 CALM 0 0 1010.9 - 3.8 - - - - - - -
16/01:00am 24.9 CALM 0 0 1011.2 - 3.8 - - - - - - -
16/12:30am 24.9 CALM 0 0 1011.5 - 3.8 - - - - - - -
16/12:00am 25.0 CALM 0 1 1011.5 - 3.8 - - - - - - -
 
Date/Time
EST
Temp

°C
Wind Pressure Rain
since 9am
mm
Weather Cloud Vis
km
Sea
Height
m
Swell
Dir
 
Speed
knots
Gust
knots
hPa Trend Height
m
Period
s
Dir
15/11:30pm 25.2 CALM 0 0 1011.7 - 3.8 - - - - - - -
15/11:00pm 25.2 SSE 4 5 1011.8 - 3.8 - - - - - - -
15/10:30pm 25.5 E 5 6 1012.0 - 3.0 - - - - - - -
15/10:00pm 25.7 CALM 0 0 1011.9 - 0.0 - - - - - - -
15/09:30pm 25.9 CALM 0 0 1011.8 - 0.0 - - - - - - -
15/09:00pm 25.9 CALM 0 0 1011.7 - 0.0 - - - - - - -
15/08:30pm 26.0 CALM 0 0 1011.6 - 0.0 - - - - - - -
15/08:00pm 26.2 S 4 5 1010.9 - 0.0 - - - - - - -
15/07:30pm 26.7 SSE 4 6 1010.5 - 0.0 - - - - - - -
15/07:00pm 27.0 ESE 5 8 1009.8 - 0.0 - - - - - - -
15/06:30pm 27.1 ESE 4 5 1009.5 - 0.0 - - - - - - -
15/06:00pm 27.4 CALM 0 0 1009.2 - 0.0 - - - - - - -
15/05:30pm 27.8 ENE 3 4 1009.2 - 0.0 - - - - - - -
15/05:00pm 28.4 E 5 9 1009.1 - 0.0 - - - - - - -
15/04:30pm 28.7 ESE 6 8 1009.1 - 0.0 - - - - - - -
15/04:00pm 29.0 ESE 8 10 1008.9 - 0.0 - - - - - - -
15/03:30pm 29.3 E 7 11 1008.7 - 0.0 - - - - - - -
15/03:00pm 28.9 E 8 13 1008.7 - 0.0 Fine Cloudy 15 - - - -
15/02:30pm 29.6 ESE 7 10 1008.9 - 0.0 - - - - - - -
15/02:00pm 29.3 ESE 8 11 1009.3 - 0.0 - - - - - - -
15/01:30pm 29.5 ESE 8 10 1009.7 - 0.0 - - - - - - -
15/01:00pm 30.0 E 7 11 1010.1 - 0.0 - - - - - - -
15/12:30pm 29.7 E 8 10 1010.8 - 0.0 - - - - - - -
15/12:00pm 30.5 E 6 10 1010.9 - 0.0 - - - - - - -
15/11:30am 29.6 E 6 9 1011.5 - 0.0 - - - - - - -
15/11:00am 29.2 ESE 2 5 1011.8 - 0.0 - - - - - - -
15/10:30am 28.4 CALM 0 3 1012.1 - 0.0 - - - - - - -
15/10:00am 27.9 S 1 5 1012.3 - 0.0 - - - - - - -
15/09:30am 27.0 SSE 4 6 1012.2 - 0.0 - - - - - - -
15/09:00am 26.1 CALM 0 0 1011.9 - 0.0 Fine Cloudy 15 - - - -
15/08:30am 25.5 CALM 0 0 1011.6 - 0.0 - - - - - - -
15/08:00am 25.1 CALM 0 0 1011.4 - 0.0 - - - - - - -
15/07:30am 24.8 CALM 0 0 1010.8 - 0.0 - - - - - - -
15/07:00am 24.5 CALM 0 0 1010.4 - 0.0 - - - - - - -
15/06:30am 24.3 CALM 0 0 1010.1 - 0.0 - - - - - - -
15/06:00am 24.2 CALM 0 0 1009.7 - 0.0 - - - - - - -
15/05:30am 24.3 CALM 0 0 1009.5 - 0.0 - - - - - - -
15/05:00am 24.3 CALM 0 0 1009.7 - 0.0 - - - - - - -
15/04:30am 24.4 CALM 0 0 1009.7 - 0.0 - - - - - - -
15/04:00am 24.4 CALM 0 0 1009.5 - 0.0 - - - - - - -
15/03:30am 24.4 CALM 0 0 1009.4 - 0.0 - - - - - - -
15/03:00am 24.4 CALM 0 0 1009.2 - 0.0 - - - - - - -
15/02:30am 24.5 CALM 0 0 1009.4 - 0.0 - - - - - - -
15/02:00am 24.7 CALM 0 0 1009.6 - 0.0 - - - - - - -
15/01:30am 24.9 CALM 0 0 1009.8 - 0.0 - - - - - - -
15/01:00am 24.7 CALM 0 0 1009.9 - 0.0 - - - - - - -
15/12:30am 24.6 CALM 0 2 1010.1 - 0.0 - - - - - - -
15/12:00am 24.6 CALM 0 0 1009.9 - 0.0 - - - - - - -
 
Date/Time
EST
Temp

°C
Wind Pressure Rain
since 9am
mm
Weather Cloud Vis
km
Sea
Height
m
Swell
Dir
 
Speed
knots
Gust
knots
hPa Trend Height
m
Period
s
Dir
14/11:30pm 24.7 CALM 0 0 1009.9 - 0.0 - - - - - - -
14/11:00pm 24.8 CALM 0 0 1010.0 - 0.0 - - - - - - -
14/10:30pm 25.0 CALM 0 0 1010.1 - 0.0 - - - - - - -
14/10:00pm 25.2 CALM 0 0 1010.2 - 0.0 - - - - - - -
14/09:30pm 25.3 CALM 0 0 1010.2 - 0.0 - - - - - - -
14/09:00pm 25.5 S 1 3 1009.6 - 0.0 - - - - - - -
14/08:30pm 25.3 CALM 0 0 1009.7 - 0.0 - - - - - - -
14/08:00pm 26.0 CALM 0 0 1009.3 - 0.0 - - - - - - -
14/07:30pm 26.2 CALM 0 0 1008.8 - 0.0 - - - - - - -
14/07:00pm 26.5 CALM 0 0 1008.5 - 0.0 - - - - - - -
14/06:30pm 27.0 CALM 0 0 1008.1 - 0.0 - - - - - - -
14/06:00pm 27.2 CALM 0 0 1007.8 - 0.0 - - - - - - -
14/05:30pm 27.3 SSW 4 6 1008.1 - 0.0 - - - - - - -
14/05:00pm 28.0 S 4 5 1007.8 - 0.0 - - - - - - -
14/04:30pm 28.5 SW 1 4 1007.7 - 0.0 - - - - - - -
14/04:00pm 28.2 W 5 7 1007.5 - 0.0 - - - - - - -

Other Formats:

Comma delimited format used in spreadsheet applications
http://www.bom.gov.au/fwo/IDQ60701/IDQ60701.94186.axf

JavaScript Object Notation format (JSON) in row-major order
http://www.bom.gov.au/fwo/IDQ60701/IDQ60701.94186.json